• Join FlightAware (Why Join?)
  • Login
  • US Flag 
10:34AM EDT


 

Airport Tracker/Info


-or-


 

Live Flight TrackerFlight Track Log ✈ VH-MKM ✈ 07-May-2013 ✈ YBCG / OOL - YHBA / HVB

Flight Track Log - Related Links

Times and Time Zones

All times are in EDT time to prevent confusion due to time zone crossing. See the VH-MKM flight status page for this flight to view local times or setup timezone preferences in your user account.

Time Position Orientation Groundspeed Altitude Reporting Facility
EDT Latitude Longitude Course Direction KTS MPH feet Rate Location/Type
11:08PM -28.1147 153.4833 155° Southeast 1,000  Level Aus ATC (Calculated)
11:09PM -28.1884 153.5220 96° East 101 116 700  Descending Aus ATC (RADAR)
11:09PM -28.1903 153.5411 96° East 117 135 1,000 -120 Climbing Aus ATC (RADAR)
11:10PM -28.1870 153.5480 59° Northeast 124 143 600  Descending FlightAware
11:10PM -28.1766 153.5670 59° Northeast 128 147 1,000 120 Climbing Aus ATC (RADAR)
11:10PM -28.1780 153.5700 65° Northeast 124 143 700 -600 Descending FlightAware
11:11PM -28.1590 153.5580 331° Northwest 149 171 700  Level FlightAware
11:11PM -28.1470 153.5460 319° Northwest 151 174 700  Level FlightAware
11:12PM -28.1340 153.5330 319° Northwest 151 174 700 360 Level FlightAware
11:12PM -28.1177 153.5172 319° Northwest 150 173 1,000  Climbing Aus ATC (RADAR)
11:12PM -28.1150 153.5150 319° Northwest 152 175 700  Descending FlightAware
11:13PM -28.0820 153.4975 319° Northwest 156 180 1,000  Climbing Aus ATC (RADAR)
11:13PM -28.0800 153.4960 319° Northwest 157 181 700 -540 Descending FlightAware
11:13PM -28.0610 153.4860 335° Northwest 159 183 700 -120 Level FlightAware
11:14PM -28.0440 153.4770 335° Northwest 160 184 600 -240 Descending FlightAware
11:14PM -28.0190 153.4640 335° Northwest 163 188 500 -240 Descending FlightAware
11:15PM -28.0020 153.4540 333° Northwest 165 190 400 -240 Descending FlightAware
11:15PM -27.9820 153.4450 333° Northwest 174 200 300 420 Descending FlightAware
11:15PM -27.9763 153.4422 333° Northwest 172 198 600  Climbing Aus ATC (RADAR)
11:16PM -27.9620 153.4370 341° North 174 200 300 -60 Descending FlightAware
11:17PM -27.9090 153.4400 North 200 60 Descending FlightAware
11:18PM -27.8747 153.4394 North 163 188 500  Climbing Aus ATC (RADAR)
11:18PM -27.8710 153.4400 North 163 188 200  Descending FlightAware
11:18PM -27.8485 153.4416 North 162 186 500  Climbing Aus ATC (RADAR)
11:18PM -27.8460 153.4420 North 163 188 200 -600 Descending FlightAware
11:19PM -27.8280 153.4430 North 163 188 200  Level FlightAware
11:19PM -27.8120 153.4450 North 162 186 200 300 Level FlightAware
11:20PM -27.7850 153.4475 North 159 183 500  Climbing Aus ATC (RADAR)
11:20PM -27.7860 153.4490 North 162 186 200 -600 Descending FlightAware
11:20PM -27.7680 153.4500 North 162 186 200 240 Level FlightAware
11:21PM -27.7362 153.4640 North 154 177 500  Climbing Aus ATC (RADAR)
11:22PM -27.6870 153.4780 North 154 177 200 -180 Descending FlightAware
11:22PM -27.6700 153.4820 12° North 154 177 200 300 Level FlightAware
11:23PM -27.6447 153.4801 12° North 155 178 500 240 Climbing Aus ATC (RADAR)
11:24PM -27.6163 153.4814 North 152 175 500  Level Aus ATC (RADAR)
11:24PM -27.5858 153.4887 12° North 149 171 500  Level Aus ATC (RADAR)
11:25PM -27.5624 153.4975 18° North 152 175 500  Level Aus ATC (RADAR)
11:26PM -27.5260 153.5103 17° North 150 173 500  Level Aus ATC (RADAR)
11:27PM -27.4611 153.5361 19° North 147 169 500  Level Aus ATC (RADAR)
11:28PM -27.4422 153.5451 23° Northeast 147 169 500 -420 Level Aus ATC (RADAR)
11:28PM -27.4340 153.5490 23° Northeast 151 174 200 -660 Descending FlightAware
11:28PM -27.4290 153.5500 10° North 155 178 200  Level FlightAware
11:29PM -27.4140 153.5430 337° Northwest 154 177 200  Level FlightAware
11:29PM -27.3980 153.5270 318° Northwest 154 177 200  Level FlightAware
11:30PM -27.3820 153.5100 317° Northwest 152 175 200  Level FlightAware
11:30PM -27.3690 153.4970 318° Northwest 148 170 200  Level FlightAware
11:31PM -27.3540 153.4820 318° Northwest 143 165 200  Level FlightAware
11:31PM -27.3420 153.4710 321° Northwest 145 167 200  Level FlightAware
11:32PM -27.3270 153.4550 317° Northwest 143 165 200  Level FlightAware
11:32PM -27.3190 153.4480 322° Northwest 142 163 200  Level FlightAware
11:32PM -27.3070 153.4350 316° Northwest 141 162 200  Level FlightAware
11:32PM -27.2990 153.4280 322° Northwest 143 165 200  Level FlightAware
11:33PM -27.2940 153.4200 305° West 141 162 200 480 Level FlightAware
11:33PM -27.2845 153.4021 305° West 145 167 500  Climbing Aus ATC (RADAR)
11:33PM -27.2830 153.4000 305° West 146 168 200 -600 Descending FlightAware
11:34PM -27.2710 153.3870 316° Northwest 150 173 200  Level FlightAware
11:34PM -27.2620 153.3810 329° Northwest 151 174 200  Level FlightAware
11:34PM -27.2410 153.3720 339° North 151 174 200  Level FlightAware
11:35PM -27.2250 153.3650 339° North 152 175 200  Level FlightAware
11:35PM -27.2150 153.3610 340° North 154 177 200  Level FlightAware
11:35PM -27.1980 153.3550 343° North 154 177 200 360 Level FlightAware
11:36PM -27.1801 153.3478 343° North 153 176 500  Climbing Aus ATC (RADAR)
11:36PM -27.1780 153.3470 343° North 151 174 200  Descending FlightAware
11:36PM -27.1634 153.3410 343° North 153 176 500  Climbing Aus ATC (RADAR)
11:36PM -27.1580 153.3390 343° North 152 175 200 -180 Descending FlightAware
11:37PM -27.1430 153.3300 332° Northwest 137 158 400 420 Climbing FlightAware
11:37PM -27.1270 153.3180 326° Northwest 131 151 600 300 Climbing FlightAware
11:38PM -27.1150 153.3090 326° Northwest 130 150 700 300 Climbing FlightAware
11:38PM -27.1010 153.2980 325° Northwest 128 147 900 420 Climbing FlightAware
11:39PM -27.0900 153.2890 324° Northwest 130 150 1,100 660 Climbing FlightAware
11:39PM -27.0725 153.2747 324° Northwest 131 151 1,500 180 Climbing Aus ATC (RADAR)
11:39PM -27.0730 153.2760 324° Northwest 138 159 1,200 -540 Descending FlightAware
11:40PM -27.0560 153.2630 326° Northwest 149 171 1,200  Level FlightAware
11:40PM -27.0420 153.2510 323° Northwest 154 177 1,200 300 Level FlightAware
11:41PM -27.0237 153.2370 323° Northwest 153 176 1,500  Climbing Aus ATC (RADAR)
11:41PM -27.0240 153.2380 323° Northwest 155 178 1,200  Descending FlightAware
11:41PM -27.0090 153.2244 323° Northwest 157 181 1,500  Climbing Aus ATC (RADAR)
11:41PM -27.0080 153.2250 323° Northwest 158 182 1,200 -540 Descending FlightAware
11:42PM -26.9910 153.2120 326° Northwest 159 183 1,200  Level FlightAware
11:42PM -26.9750 153.1990 324° Northwest 159 183 1,200  Level FlightAware
11:42PM -26.9580 153.1860 326° Northwest 159 183 1,200  Level FlightAware
11:43PM -26.9400 153.1720 325° Northwest 159 183 1,200  Level FlightAware
11:43PM -26.9300 153.1660 332° Northwest 157 181 1,200 540 Level FlightAware
11:43PM -26.9150 153.1615 332° Northwest 158 182 1,500  Climbing Aus ATC (RADAR)
11:44PM -26.9120 153.1620 332° Northwest 157 181 1,200 -480 Descending FlightAware
11:44PM -26.8910 153.1590 353° North 157 181 1,200  Level FlightAware
11:44PM -26.8790 153.1570 352° North 158 182 1,200  Level FlightAware
11:45PM -26.8690 153.1530 340° North 160 184 1,200 360 Level FlightAware
11:45PM -26.8547 153.1454 340° North 158 182 1,400 -480 Climbing Aus ATC (RADAR)
11:45PM -26.8530 153.1420 340° North 173 199 1,000 -360 Descending FlightAware
11:46PM -26.8350 153.1260 322° Northwest 153 176 1,200 240 Climbing FlightAware
11:46PM -26.8290 153.1160 304° West 155 178 1,200 540 Level FlightAware
11:46PM -26.8207 153.1034 304° West 149 171 1,500  Climbing Aus ATC (RADAR)
11:46PM -26.8190 153.0990 304° West 158 182 1,200 -780 Descending FlightAware
11:46PM -26.8140 153.0880 297° West 158 182 1,200 600 Level FlightAware
11:47PM -26.8075 153.0732 297° West 156 180 1,500  Climbing Aus ATC (RADAR)
11:47PM -26.8040 153.0670 297° West 159 183 1,200 -480 Descending FlightAware
11:47PM -26.7910 153.0520 314° West 157 181 1,200 360 Level FlightAware
11:48PM -26.7771 153.0381 314° West 156 180 1,500  Climbing Aus ATC (RADAR)
11:48PM -26.7740 153.0360 314° West 149 171 1,200 180 Descending FlightAware
11:48PM -26.7637 153.0265 314° West 147 169 1,600 240 Climbing Aus ATC (RADAR)
11:48PM -26.7610 153.0270 314° West 145 167 1,300 120 Descending FlightAware
11:49PM -26.7418 153.0169 314° West 144 166 1,700 180 Climbing Aus ATC (RADAR)
11:49PM -26.7420 153.0170 314° West 144 166 1,400 -420 Descending FlightAware
11:49PM -26.7270 153.0100 337° Northwest 142 163 1,500 480 Climbing FlightAware
11:50PM -26.7112 153.0029 337° Northwest 141 162 1,800 180 Climbing Aus ATC (RADAR)
11:50PM -26.7080 153.0010 337° Northwest 140 161 1,600 120 Descending FlightAware
11:50PM -26.6905 152.9925 337° Northwest 139 160 1,900  Climbing Aus ATC (RADAR)
11:50PM -26.6910 152.9930 337° Northwest 138 159 1,600 -420 Descending FlightAware
11:51PM -26.6760 152.9860 337° Northwest 142 163 1,700 120 Climbing FlightAware
11:51PM -26.6660 152.9810 336° Northwest 146 168 1,700 420 Level FlightAware
11:51PM -26.6476 152.9710 336° Northwest 148 170 2,000  Climbing Aus ATC (RADAR)
11:51PM -26.6470 152.9720 336° Northwest 151 174 1,700  Descending FlightAware
11:52PM -26.6244 152.9612 336° Northwest 152 175 2,000  Climbing Aus ATC (RADAR)
11:52PM -26.6300 152.9640 336° Northwest 151 174 1,700 -600 Descending FlightAware
11:52PM -26.6090 152.9540 337° Northwest 153 176 1,700  Level FlightAware
11:53PM -26.5930 152.9470 339° North 153 176 1,700  Level FlightAware
11:53PM -26.5800 152.9420 341° North 153 176 1,700 480 Level FlightAware
11:53PM -26.5648 152.9347 341° North 152 175 2,000  Climbing Aus ATC (RADAR)
11:53PM -26.5660 152.9360 341° North 153 176 1,700  Descending FlightAware
11:54PM -26.5411 152.9285 341° North 148 170 2,000  Climbing Aus ATC (RADAR)
11:54PM -26.5270 152.9330 341° North 147 169 1,700 -360 Descending FlightAware
11:55PM -26.5080 152.9400 18° North 143 165 1,700 240 Level FlightAware
11:55PM -26.4836 152.9528 18° North 146 168 2,000 120 Climbing Aus ATC (RADAR)
11:56PM -26.4603 152.9764 42° Northeast 133 153 1,900 -300 Descending Aus ATC (RADAR)
11:56PM -26.4590 152.9800 42° Northeast 133 153 1,700  Descending FlightAware
11:57PM -26.4467 152.9951 42° Northeast 133 153 1,900  Climbing Aus ATC (RADAR)
11:57PM -26.4450 152.9940 42° Northeast 146 168 1,700 -300 Descending FlightAware
11:58PM -26.4240 153.0010 17° North 151 174 1,700 120 Level FlightAware
11:58PM -26.3991 153.0111 17° North 129 148 1,900 180 Climbing Aus ATC (RADAR)
11:58PM -26.3896 153.0218 45° Northeast 135 155 1,900  Level Aus ATC (RADAR)
11:59PM -26.3723 153.0399 43° Northeast 143 165 1,900  Level Aus ATC (RADAR)
12:00AM -26.3472 153.0581 33° Northeast 147 169 1,900  Level Aus ATC (RADAR)
12:00AM -26.3255 153.0676 21° North 147 169 1,900  Level Aus ATC (RADAR)
12:01AM -26.2977 153.0781 19° North 142 163 1,900 60 Level Aus ATC (RADAR)
12:02AM -26.2797 153.0815 North 153 176 2,000  Climbing Aus ATC (RADAR)
12:02AM -26.2550 153.0843 North 153 176 1,900 -120 Descending Aus ATC (RADAR)
12:03AM -26.2108 153.0912 North 148 170 1,900  Level Aus ATC (RADAR)
12:04AM -26.1939 153.0936 North 147 169 1,900  Level Aus ATC (RADAR)
12:04AM -26.1712 153.0968 North 142 163 1,900 60 Level Aus ATC (RADAR)
12:05AM -26.1415 153.1139 27° Northeast 141 162 2,000  Climbing Aus ATC (RADAR)
12:06AM -26.1207 153.1231 22° Northeast 140 161 1,900 -120 Descending Aus ATC (RADAR)
12:06AM -26.0912 153.1380 24° Northeast 139 160 1,900  Level Aus ATC (RADAR)
12:07AM -26.0773 153.1427 17° North 131 151 1,900  Level Aus ATC (RADAR)
12:08AM -26.0463 153.1554 20° North 130 150 1,900  Level Aus ATC (RADAR)
12:11AM -25.9554 153.1208 180° South -660 Descending Aus ATC (Calculated)
12:11AM -25.9554 153.1208 341° North  Level Aus ATC (Calculated)
12:13AM -25.9444 153.1167 341° North  Level Estimated
12:14AM -25.9362 153.1135 341° North  Level Estimated
12:14AM -25.8759 153.0906 165° South  Level Aus ATC (Calculated)
12:14AM -25.8759 153.0906 341° North  Level Aus ATC (Calculated)
12:16AM -25.8600 153.0846 341° North  Level Estimated
12:17AM -25.8519 153.0815 341° North  Level Estimated
12:18AM -25.8436 153.0783 341° North  Level Estimated
12:19AM -25.8354 153.0752 341° North  Level Estimated
12:19AM -25.6670 153.0115 341° North  Level Aus ATC (Calculated)
12:20AM -25.6588 153.0084 341° North  Level Estimated
12:21AM -25.6505 153.0053 341° North  Level Estimated
12:22AM -25.6423 153.0022 341° North  Level Estimated
12:23AM -25.6340 152.9990 341° North  Level Estimated
12:23AM -25.4059 152.9130 161° South  Level Aus ATC (Calculated)
12:24AM -25.6258 152.9959 341° North  Level Estimated
12:25AM -25.3975 152.9099 341° North  Level Estimated
12:26AM -25.3892 152.9068 341° North  Level Estimated
12:27AM -25.3810 152.9037 341° North  Level Estimated
12:28AM -25.3727 152.9005 341° North  Level Estimated
12:29AM -25.3645 152.8974 341° North  Level Estimated
12:30AM -25.3562 152.8943 341° North  Level Estimated
12:31AM -25.3480 152.8912 341° North  Level Estimated
12:32AM -25.3397 152.8881 341° North  Level Estimated
12:33AM -25.3315 152.8850 341° North  Level Estimated
12:34AM -25.3232 152.8819 341° North  Level Estimated
12:35AM -25.3189 152.8803 341° North  Level Estimated
12:36AM -25.3189 152.8803 299° West  Level Estimated
12:37AM -25.3189 152.8803 299° West  Level Estimated